sensor_id;sensor_type;location;lat;lon;timestamp;temperature;humidity
21085;DHT22;34247;50.064;19.970;2022-11-20T02:48:07;16.70;23.80
21085;DHT22;34247;50.064;19.970;2022-11-20T02:49:11;16.70;23.90
21085;DHT22;34247;50.064;19.970;2022-11-20T02:50:16;16.70;23.90
21085;DHT22;34247;50.064;19.970;2022-11-20T02:51:22;16.70;23.90
21085;DHT22;34247;50.064;19.970;2022-11-20T02:52:27;16.70;23.90
21085;DHT22;34247;50.064;19.970;2022-11-20T02:53:31;16.70;23.90
21085;DHT22;34247;50.064;19.970;2022-11-20T02:54:54;16.70;23.90
21085;DHT22;34247;50.064;19.970;2022-11-20T02:55:58;16.70;23.90
21085;DHT22;34247;50.064;19.970;2022-11-20T02:57:03;16.70;23.90
21085;DHT22;34247;50.064;19.970;2022-11-20T02:58:11;16.70;23.90
21085;DHT22;34247;50.064;19.970;2022-11-20T02:59:15;16.70;24.00
21085;DHT22;34247;50.064;19.970;2022-11-20T03:00:22;16.70;23.90
21085;DHT22;34247;50.064;19.970;2022-11-20T03:03:33;16.70;23.90
21085;DHT22;34247;50.064;19.970;2022-11-20T03:04:41;16.70;23.90
21085;DHT22;34247;50.064;19.970;2022-11-20T03:05:45;16.70;23.80
21085;DHT22;34247;50.064;19.970;2022-11-20T03:06:48;16.70;23.90
21085;DHT22;34247;50.064;19.970;2022-11-20T03:07:54;16.70;23.80
21085;DHT22;34247;50.064;19.970;2022-11-20T03:09:01;16.60;23.80
21085;DHT22;34247;50.064;19.970;2022-11-20T03:10:08;16.60;23.80
21085;DHT22;34247;50.064;19.970;2022-11-20T03:11:12;16.60;23.80
21085;DHT22;34247;50.064;19.970;2022-11-20T03:12:17;16.60;23.80
21085;DHT22;34247;50.064;19.970;2022-11-20T03:13:25;16.60;23.80
21085;DHT22;34247;50.064;19.970;2022-11-20T03:14:34;16.60;23.80
21085;DHT22;34247;50.064;19.970;2022-11-20T03:15:48;16.60;23.80
21085;DHT22;34247;50.064;19.970;2022-11-20T03:16:52;16.60;23.70
21085;DHT22;34247;50.064;19.970;2022-11-20T03:17:57;16.60;23.70
21085;DHT22;34247;50.064;19.970;2022-11-20T03:19:14;16.60;23.70
21085;DHT22;34247;50.064;19.970;2022-11-20T03:20:18;16.60;23.70
21085;DHT22;34247;50.064;19.970;2022-11-20T03:21:22;16.60;24.20
21085;DHT22;34247;50.064;19.970;2022-11-20T03:22:31;16.60;23.60
21085;DHT22;34247;50.064;19.970;2022-11-20T03:23:37;16.60;23.60
21085;DHT22;34247;50.064;19.970;2022-11-20T03:24:45;16.60;23.60
21085;DHT22;34247;50.064;19.970;2022-11-20T03:25:52;16.60;23.60
21085;DHT22;34247;50.064;19.970;2022-11-20T03:26:57;16.60;23.60
21085;DHT22;34247;50.064;19.970;2022-11-20T03:28:00;16.60;23.60
21085;DHT22;34247;50.064;19.970;2022-11-20T03:29:04;16.60;23.50
21085;DHT22;34247;50.064;19.970;2022-11-20T03:30:09;16.60;23.50
21085;DHT22;34247;50.064;19.970;2022-11-20T03:31:19;16.60;23.50
21085;DHT22;34247;50.064;19.970;2022-11-20T03:32:27;16.60;23.50
21085;DHT22;34247;50.064;19.970;2022-11-20T03:33:30;16.60;23.50
21085;DHT22;34247;50.064;19.970;2022-11-20T03:34:34;16.60;23.50
21085;DHT22;34247;50.064;19.970;2022-11-20T03:35:38;16.60;23.50
21085;DHT22;34247;50.064;19.970;2022-11-20T03:36:43;16.60;23.50
21085;DHT22;34247;50.064;19.970;2022-11-20T03:37:48;16.60;23.50
21085;DHT22;34247;50.064;19.970;2022-11-20T03:38:58;16.60;23.50
21085;DHT22;34247;50.064;19.970;2022-11-20T03:40:02;16.60;23.50
21085;DHT22;34247;50.064;19.970;2022-11-20T03:41:14;16.60;23.50
21085;DHT22;34247;50.064;19.970;2022-11-20T03:42:28;16.60;23.50
21085;DHT22;34247;50.064;19.970;2022-11-20T03:44:04;16.60;23.50
21085;DHT22;34247;50.064;19.970;2022-11-20T03:45:11;16.60;23.50
21085;DHT22;34247;50.064;19.970;2022-11-20T03:46:18;16.60;23.50
21085;DHT22;34247;50.064;19.970;2022-11-20T03:47:28;16.60;23.50
21085;DHT22;34247;50.064;19.970;2022-11-20T03:48:37;16.60;23.50
21085;DHT22;34247;50.064;19.970;2022-11-20T03:49:45;16.60;23.50
21085;DHT22;34247;50.064;19.970;2022-11-20T03:50:53;16.60;23.50
21085;DHT22;34247;50.064;19.970;2022-11-20T03:52:32;16.60;23.90
21085;DHT22;34247;50.064;19.970;2022-11-20T03:53:40;16.60;23.90
21085;DHT22;34247;50.064;19.970;2022-11-20T03:54:51;16.60;23.40
21085;DHT22;34247;50.064;19.970;2022-11-20T03:55:59;16.50;23.30
21085;DHT22;34247;50.064;19.970;2022-11-20T03:57:03;16.50;23.30
21085;DHT22;34247;50.064;19.970;2022-11-20T03:58:08;16.50;23.30
21085;DHT22;34247;50.064;19.970;2022-11-20T03:59:16;16.50;23.30
21085;DHT22;34247;50.064;19.970;2022-11-20T04:00:20;16.60;23.20
21085;DHT22;34247;50.064;19.970;2022-11-20T04:01:26;16.70;23.10
21085;DHT22;34247;50.064;19.970;2022-11-20T04:02:32;16.60;23.00
21085;DHT22;34247;50.064;19.970;2022-11-20T04:03:40;16.60;23.10
21085;DHT22;34247;50.064;19.970;2022-11-20T04:04:45;16.50;23.10
21085;DHT22;34247;50.064;19.970;2022-11-20T04:05:52;16.50;23.20
21085;DHT22;34247;50.064;19.970;2022-11-20T04:06:57;16.50;23.20
21085;DHT22;34247;50.064;19.970;2022-11-20T04:08:01;16.50;23.20
21085;DHT22;34247;50.064;19.970;2022-11-20T04:09:06;16.50;23.20
21085;DHT22;34247;50.064;19.970;2022-11-20T04:10:12;16.40;23.20
21085;DHT22;34247;50.064;19.970;2022-11-20T04:11:19;16.40;23.30
21085;DHT22;34247;50.064;19.970;2022-11-20T04:12:32;16.40;23.30
21085;DHT22;34247;50.064;19.970;2022-11-20T04:13:53;16.40;23.40
21085;DHT22;34247;50.064;19.970;2022-11-20T04:14:59;16.40;23.40
21085;DHT22;34247;50.064;19.970;2022-11-20T04:16:03;16.40;23.40
21085;DHT22;34247;50.064;19.970;2022-11-20T04:17:11;16.40;23.30
21085;DHT22;34247;50.064;19.970;2022-11-20T04:18:19;16.40;23.30
21085;DHT22;34247;50.064;19.970;2022-11-20T04:19:27;16.40;23.40
21085;DHT22;34247;50.064;19.970;2022-11-20T04:20:38;16.40;23.30
21085;DHT22;34247;50.064;19.970;2022-11-20T04:21:45;16.40;23.40
21085;DHT22;34247;50.064;19.970;2022-11-20T04:22:53;16.30;23.30
21085;DHT22;34247;50.064;19.970;2022-11-20T04:24:00;16.30;23.30
21085;DHT22;34247;50.064;19.970;2022-11-20T04:25:08;16.30;23.30
21085;DHT22;34247;50.064;19.970;2022-11-20T04:26:16;16.30;23.30
21085;DHT22;34247;50.064;19.970;2022-11-20T04:27:21;16.30;23.20
21085;DHT22;34247;50.064;19.970;2022-11-20T04:28:27;16.40;23.20
21085;DHT22;34247;50.064;19.970;2022-11-20T04:29:34;16.50;23.20
21085;DHT22;34247;50.064;19.970;2022-11-20T04:30:38;16.40;23.10
21085;DHT22;34247;50.064;19.970;2022-11-20T04:31:44;16.40;23.10
21085;DHT22;34247;50.064;19.970;2022-11-20T04:32:52;16.40;23.10
21085;DHT22;34247;50.064;19.970;2022-11-20T04:34:06;16.30;23.10
21085;DHT22;34247;50.064;19.970;2022-11-20T04:35:13;16.30;23.20
21085;DHT22;34247;50.064;19.970;2022-11-20T04:36:24;16.30;23.20
21085;DHT22;34247;50.064;19.970;2022-11-20T04:37:30;16.30;23.20
21085;DHT22;34247;50.064;19.970;2022-11-20T04:38:35;16.20;23.20
21085;DHT22;34247;50.064;19.970;2022-11-20T04:39:41;16.20;23.20
21085;DHT22;34247;50.064;19.970;2022-11-20T04:40:51;16.20;23.20
21085;DHT22;34247;50.064;19.970;2022-11-20T04:42:03;16.20;23.30
21085;DHT22;34247;50.064;19.970;2022-11-20T04:43:28;16.20;23.20
21085;DHT22;34247;50.064;19.970;2022-11-20T04:44:39;16.20;23.20
21085;DHT22;34247;50.064;19.970;2022-11-20T04:45:42;16.20;23.30
21085;DHT22;34247;50.064;19.970;2022-11-20T04:46:47;16.20;23.20
21085;DHT22;34247;50.064;19.970;2022-11-20T04:47:55;16.20;23.20
21085;DHT22;34247;50.064;19.970;2022-11-20T04:49:04;16.20;23.30
21085;DHT22;34247;50.064;19.970;2022-11-20T04:50:20;16.20;23.30
21085;DHT22;34247;50.064;19.970;2022-11-20T04:51:28;16.10;23.30
21085;DHT22;34247;50.064;19.970;2022-11-20T04:52:42;16.20;23.30
21085;DHT22;34247;50.064;19.970;2022-11-20T04:53:48;16.10;23.30
21085;DHT22;34247;50.064;19.970;2022-11-20T04:54:57;16.10;23.20
21085;DHT22;34247;50.064;19.970;2022-11-20T04:56:04;16.20;23.30
21085;DHT22;34247;50.064;19.970;2022-11-20T04:57:16;16.20;23.20
21085;DHT22;34247;50.064;19.970;2022-11-20T04:58:23;16.20;23.30
21085;DHT22;34247;50.064;19.970;2022-11-20T04:59:30;16.10;23.20
21085;DHT22;34247;50.064;19.970;2022-11-20T05:00:47;16.10;23.20
21085;DHT22;34247;50.064;19.970;2022-11-20T05:01:51;16.10;23.20
21085;DHT22;34247;50.064;19.970;2022-11-20T05:02:55;16.10;23.20
21085;DHT22;34247;50.064;19.970;2022-11-20T05:03:58;16.10;23.20
21085;DHT22;34247;50.064;19.970;2022-11-20T05:05:01;16.10;23.20
21085;DHT22;34247;50.064;19.970;2022-11-20T05:06:06;16.10;23.20
21085;DHT22;34247;50.064;19.970;2022-11-20T05:07:11;16.10;23.20
21085;DHT22;34247;50.064;19.970;2022-11-20T05:08:15;16.10;23.20
21085;DHT22;34247;50.064;19.970;2022-11-20T05:09:18;16.10;23.20
21085;DHT22;34247;50.064;19.970;2022-11-20T05:10:23;16.10;23.20
21085;DHT22;34247;50.064;19.970;2022-11-20T05:11:27;16.10;23.20
21085;DHT22;34247;50.064;19.970;2022-11-20T05:12:37;16.10;23.20
21085;DHT22;34247;50.064;19.970;2022-11-20T05:13:48;16.10;23.20
21085;DHT22;34247;50.064;19.970;2022-11-20T05:14:59;16.10;23.20
21085;DHT22;34247;50.064;19.970;2022-11-20T05:16:10;16.10;23.20
21085;DHT22;34247;50.064;19.970;2022-11-20T05:17:22;16.10;23.20
21085;DHT22;34247;50.064;19.970;2022-11-20T05:18:26;16.10;23.20
21085;DHT22;34247;50.064;19.970;2022-11-20T05:19:34;16.10;23.30
21085;DHT22;34247;50.064;19.970;2022-11-20T05:20:42;16.10;23.30
21085;DHT22;34247;50.064;19.970;2022-11-20T05:21:52;16.10;23.30
21085;DHT22;34247;50.064;19.970;2022-11-20T05:22:59;16.10;23.30
21085;DHT22;34247;50.064;19.970;2022-11-20T05:24:10;16.10;23.30
21085;DHT22;34247;50.064;19.970;2022-11-20T05:25:21;16.10;23.30
21085;DHT22;34247;50.064;19.970;2022-11-20T05:26:30;16.10;23.30
21085;DHT22;34247;50.064;19.970;2022-11-20T05:27:39;16.10;23.30
21085;DHT22;34247;50.064;19.970;2022-11-20T05:29:05;16.10;23.20
21085;DHT22;34247;50.064;19.970;2022-11-20T05:30:14;16.10;23.30
21085;DHT22;34247;50.064;19.970;2022-11-20T05:31:24;16.10;23.20
21085;DHT22;34247;50.064;19.970;2022-11-20T05:32:36;16.10;23.30
21085;DHT22;34247;50.064;19.970;2022-11-20T05:34:04;16.10;23.30
21085;DHT22;34247;50.064;19.970;2022-11-20T05:35:23;16.10;23.30
21085;DHT22;34247;50.064;19.970;2022-11-20T05:36:28;16.10;23.20
21085;DHT22;34247;50.064;19.970;2022-11-20T05:37:38;16.00;23.20
21085;DHT22;34247;50.064;19.970;2022-11-20T05:38:57;16.00;23.30
21085;DHT22;34247;50.064;19.970;2022-11-20T05:40:14;16.00;23.20
21085;DHT22;34247;50.064;19.970;2022-11-20T05:41:33;16.00;23.20
21085;DHT22;34247;50.064;19.970;2022-11-20T05:42:51;16.00;23.20
21085;DHT22;34247;50.064;19.970;2022-11-20T05:43:57;16.00;23.30
21085;DHT22;34247;50.064;19.970;2022-11-20T05:45:10;16.00;23.20
21085;DHT22;34247;50.064;19.970;2022-11-20T05:46:19;16.00;23.20
21085;DHT22;34247;50.064;19.970;2022-11-20T05:47:34;16.00;23.20
21085;DHT22;34247;50.064;19.970;2022-11-20T05:48:55;16.00;23.30
21085;DHT22;34247;50.064;19.970;2022-11-20T05:50:05;16.00;23.30
21085;DHT22;34247;50.064;19.970;2022-11-20T05:51:16;15.90;23.30
21085;DHT22;34247;50.064;19.970;2022-11-20T05:52:30;15.90;23.30
21085;DHT22;34247;50.064;19.970;2022-11-20T05:53:39;16.00;23.30
21085;DHT22;34247;50.064;19.970;2022-11-20T05:54:56;16.00;23.30
21085;DHT22;34247;50.064;19.970;2022-11-20T05:56:20;16.00;23.30
21085;DHT22;34247;50.064;19.970;2022-11-20T05:57:26;16.00;23.30
21085;DHT22;34247;50.064;19.970;2022-11-20T05:58:40;16.00;23.30
21085;DHT22;34247;50.064;19.970;2022-11-20T05:59:49;16.00;23.50
21085;DHT22;34247;50.064;19.970;2022-11-20T06:01:20;16.00;23.30
21085;DHT22;34247;50.064;19.970;2022-11-20T06:02:36;16.00;23.30
21085;DHT22;34247;50.064;19.970;2022-11-20T06:03:48;16.00;23.30
21085;DHT22;34247;50.064;19.970;2022-11-20T06:05:13;16.00;23.30
21085;DHT22;34247;50.064;19.970;2022-11-20T06:06:19;16.00;23.90
21085;DHT22;34247;50.064;19.970;2022-11-20T06:07:27;16.00;23.30
21085;DHT22;34247;50.064;19.970;2022-11-20T06:08:32;16.00;23.30
21085;DHT22;34247;50.064;19.970;2022-11-20T06:09:42;16.00;23.40
21085;DHT22;34247;50.064;19.970;2022-11-20T06:10:47;16.00;23.40
21085;DHT22;34247;50.064;19.970;2022-11-20T06:11:54;16.00;23.40
21085;DHT22;34247;50.064;19.970;2022-11-20T06:13:02;16.00;23.30
21085;DHT22;34247;50.064;19.970;2022-11-20T06:14:09;16.00;23.30
21085;DHT22;34247;50.064;19.970;2022-11-20T06:15:14;16.00;23.40
21085;DHT22;34247;50.064;19.970;2022-11-20T06:16:19;15.90;23.30
21085;DHT22;34247;50.064;19.970;2022-11-20T06:17:51;15.90;23.30
21085;DHT22;34247;50.064;19.970;2022-11-20T06:19:02;15.90;23.40
21085;DHT22;34247;50.064;19.970;2022-11-20T06:20:11;15.90;23.40
21085;DHT22;34247;50.064;19.970;2022-11-20T06:21:34;15.90;23.50
21085;DHT22;34247;50.064;19.970;2022-11-20T06:22:54;15.90;23.50
21085;DHT22;34247;50.064;19.970;2022-11-20T06:24:01;15.90;23.60
21085;DHT22;34247;50.064;19.970;2022-11-20T06:25:05;15.90;23.60
21085;DHT22;34247;50.064;19.970;2022-11-20T06:26:17;15.90;23.70
21085;DHT22;34247;50.064;19.970;2022-11-20T06:27:30;15.90;23.70
21085;DHT22;34247;50.064;19.970;2022-11-20T06:28:39;15.90;23.80
21085;DHT22;34247;50.064;19.970;2022-11-20T06:29:50;15.90;23.80
21085;DHT22;34247;50.064;19.970;2022-11-20T06:30:55;15.80;23.80
21085;DHT22;34247;50.064;19.970;2022-11-20T06:32:02;15.90;23.90
21085;DHT22;34247;50.064;19.970;2022-11-20T06:33:07;15.90;23.90
21085;DHT22;34247;50.064;19.970;2022-11-20T06:34:12;15.90;23.90
21085;DHT22;34247;50.064;19.970;2022-11-20T06:35:19;15.90;23.90
21085;DHT22;34247;50.064;19.970;2022-11-20T06:36:27;15.90;23.90
21085;DHT22;34247;50.064;19.970;2022-11-20T06:37:34;15.90;23.90
21085;DHT22;34247;50.064;19.970;2022-11-20T06:38:45;15.90;23.90
21085;DHT22;34247;50.064;19.970;2022-11-20T06:40:20;15.90;23.90
21085;DHT22;34247;50.064;19.970;2022-11-20T06:41:25;16.00;23.90
21085;DHT22;34247;50.064;19.970;2022-11-20T06:42:29;16.00;23.90
21085;DHT22;34247;50.064;19.970;2022-11-20T06:43:36;16.00;23.90
21085;DHT22;34247;50.064;19.970;2022-11-20T06:44:42;16.00;23.80
21085;DHT22;34247;50.064;19.970;2022-11-20T06:45:52;16.00;23.80
21085;DHT22;34247;50.064;19.970;2022-11-20T06:47:03;16.00;23.70
21085;DHT22;34247;50.064;19.970;2022-11-20T06:48:07;16.00;23.70
21085;DHT22;34247;50.064;19.970;2022-11-20T06:49:10;16.00;23.70
21085;DHT22;34247;50.064;19.970;2022-11-20T06:50:25;16.00;23.70
21085;DHT22;34247;50.064;19.970;2022-11-20T06:51:29;16.00;23.70
21085;DHT22;34247;50.064;19.970;2022-11-20T06:52:36;15.90;23.70
21085;DHT22;34247;50.064;19.970;2022-11-20T06:53:45;15.90;23.70
21085;DHT22;34247;50.064;19.970;2022-11-20T06:54:49;15.90;23.70
21085;DHT22;34247;50.064;19.970;2022-11-20T06:55:56;15.90;23.80
21085;DHT22;34247;50.064;19.970;2022-11-20T06:57:00;15.90;23.80
21085;DHT22;34247;50.064;19.970;2022-11-20T06:58:04;15.90;23.80
21085;DHT22;34247;50.064;19.970;2022-11-20T06:59:08;15.90;23.80
21085;DHT22;34247;50.064;19.970;2022-11-20T07:00:12;15.90;23.80
21085;DHT22;34247;50.064;19.970;2022-11-20T07:01:20;15.90;23.90
21085;DHT22;34247;50.064;19.970;2022-11-20T07:02:24;15.90;23.90
21085;DHT22;34247;50.064;19.970;2022-11-20T07:03:28;15.90;24.00
21085;DHT22;34247;50.064;19.970;2022-11-20T07:04:31;15.90;24.10
21085;DHT22;34247;50.064;19.970;2022-11-20T07:05:36;15.90;24.20
21085;DHT22;34247;50.064;19.970;2022-11-20T07:06:40;15.90;24.30
21085;DHT22;34247;50.064;19.970;2022-11-20T07:07:43;15.90;24.20
21085;DHT22;34247;50.064;19.970;2022-11-20T07:08:49;15.90;24.20
21085;DHT22;34247;50.064;19.970;2022-11-20T07:09:55;15.90;24.30
21085;DHT22;34247;50.064;19.970;2022-11-20T07:11:00;15.90;24.30
21085;DHT22;34247;50.064;19.970;2022-11-20T07:12:06;15.80;24.30
21085;DHT22;34247;50.064;19.970;2022-11-20T07:13:10;15.80;24.40
21085;DHT22;34247;50.064;19.970;2022-11-20T07:14:13;15.80;24.40
21085;DHT22;34247;50.064;19.970;2022-11-20T07:15:17;15.80;24.40
21085;DHT22;34247;50.064;19.970;2022-11-20T07:16:22;15.80;24.40
21085;DHT22;34247;50.064;19.970;2022-11-20T07:17:25;15.80;24.40
21085;DHT22;34247;50.064;19.970;2022-11-20T07:18:29;15.90;24.50
21085;DHT22;34247;50.064;19.970;2022-11-20T07:19:32;15.90;24.60
21085;DHT22;34247;50.064;19.970;2022-11-20T07:20:36;15.90;24.50
21085;DHT22;34247;50.064;19.970;2022-11-20T07:21:40;15.90;24.50
21085;DHT22;34247;50.064;19.970;2022-11-20T07:22:43;15.80;24.50
21085;DHT22;34247;50.064;19.970;2022-11-20T07:23:47;15.90;24.50
21085;DHT22;34247;50.064;19.970;2022-11-20T07:24:51;15.90;24.50
21085;DHT22;34247;50.064;19.970;2022-11-20T07:25:54;15.90;24.50
21085;DHT22;34247;50.064;19.970;2022-11-20T07:26:58;15.90;24.60
21085;DHT22;34247;50.064;19.970;2022-11-20T07:28:01;15.90;24.60
21085;DHT22;34247;50.064;19.970;2022-11-20T07:29:05;15.90;24.60
21085;DHT22;34247;50.064;19.970;2022-11-20T07:30:09;15.90;24.60
21085;DHT22;34247;50.064;19.970;2022-11-20T07:31:13;15.90;24.60
21085;DHT22;34247;50.064;19.970;2022-11-20T07:32:21;15.90;24.60
21085;DHT22;34247;50.064;19.970;2022-11-20T07:33:25;15.90;24.70
21085;DHT22;34247;50.064;19.970;2022-11-20T07:34:28;15.90;24.60
21085;DHT22;34247;50.064;19.970;2022-11-20T07:35:32;15.90;24.60
21085;DHT22;34247;50.064;19.970;2022-11-20T07:36:36;15.90;24.60
21085;DHT22;34247;50.064;19.970;2022-11-20T07:37:42;15.90;24.60
21085;DHT22;34247;50.064;19.970;2022-11-20T07:38:46;15.90;24.60
21085;DHT22;34247;50.064;19.970;2022-11-20T07:39:50;16.00;24.70
21085;DHT22;34247;50.064;19.970;2022-11-20T07:40:54;15.90;24.60
21085;DHT22;34247;50.064;19.970;2022-11-20T07:41:59;15.90;24.60
21085;DHT22;34247;50.064;19.970;2022-11-20T07:43:02;15.90;24.60
21085;DHT22;34247;50.064;19.970;2022-11-20T07:44:06;15.90;24.70
21085;DHT22;34247;50.064;19.970;2022-11-20T07:45:10;15.90;24.70
21085;DHT22;34247;50.064;19.970;2022-11-20T07:46:13;15.90;24.70
21085;DHT22;34247;50.064;19.970;2022-11-20T07:47:17;15.90;24.80
21085;DHT22;34247;50.064;19.970;2022-11-20T07:48:20;15.90;24.80
21085;DHT22;34247;50.064;19.970;2022-11-20T07:49:24;15.90;24.80
21085;DHT22;34247;50.064;19.970;2022-11-20T07:50:27;15.90;24.80
21085;DHT22;34247;50.064;19.970;2022-11-20T07:51:31;15.90;24.90
21085;DHT22;34247;50.064;19.970;2022-11-20T07:52:34;15.90;25.00
21085;DHT22;34247;50.064;19.970;2022-11-20T07:53:38;15.90;25.00
21085;DHT22;34247;50.064;19.970;2022-11-20T07:54:44;15.90;25.10
21085;DHT22;34247;50.064;19.970;2022-11-20T07:55:51;15.90;25.10
21085;DHT22;34247;50.064;19.970;2022-11-20T07:56:55;15.90;25.10
21085;DHT22;34247;50.064;19.970;2022-11-20T07:57:59;15.90;25.10
21085;DHT22;34247;50.064;19.970;2022-11-20T07:59:03;15.90;25.10
21085;DHT22;34247;50.064;19.970;2022-11-20T08:00:08;15.90;25.10
21085;DHT22;34247;50.064;19.970;2022-11-20T08:01:14;16.00;25.10
21085;DHT22;34247;50.064;19.970;2022-11-20T08:02:17;16.00;25.10
21085;DHT22;34247;50.064;19.970;2022-11-20T08:03:21;16.00;25.10
21085;DHT22;34247;50.064;19.970;2022-11-20T08:04:27;16.00;25.10
21085;DHT22;34247;50.064;19.970;2022-11-20T08:05:31;16.00;25.10
21085;DHT22;34247;50.064;19.970;2022-11-20T08:06:36;16.00;25.10
21085;DHT22;34247;50.064;19.970;2022-11-20T08:07:41;16.00;25.10
21085;DHT22;34247;50.064;19.970;2022-11-20T08:08:46;16.00;25.10
21085;DHT22;34247;50.064;19.970;2022-11-20T08:09:49;16.00;25.10
21085;DHT22;34247;50.064;19.970;2022-11-20T08:10:53;16.10;25.10
21085;DHT22;34247;50.064;19.970;2022-11-20T08:12:20;16.10;25.20
21085;DHT22;34247;50.064;19.970;2022-11-20T08:13:43;16.10;25.10
21085;DHT22;34247;50.064;19.970;2022-11-20T08:15:06;16.10;25.00
21085;DHT22;34247;50.064;19.970;2022-11-20T08:16:15;16.20;25.00
21085;DHT22;34247;50.064;19.970;2022-11-20T08:17:19;16.20;25.00
21085;DHT22;34247;50.064;19.970;2022-11-20T08:18:22;16.20;24.90
21085;DHT22;34247;50.064;19.970;2022-11-20T08:19:33;16.20;24.90
21085;DHT22;34247;50.064;19.970;2022-11-20T08:20:37;16.20;24.90
21085;DHT22;34247;50.064;19.970;2022-11-20T08:21:41;16.10;24.90
21085;DHT22;34247;50.064;19.970;2022-11-20T08:22:45;16.10;25.00
21085;DHT22;34247;50.064;19.970;2022-11-20T08:23:49;16.10;25.00
21085;DHT22;34247;50.064;19.970;2022-11-20T08:24:52;16.10;25.00
21085;DHT22;34247;50.064;19.970;2022-11-20T08:25:56;16.10;25.00
21085;DHT22;34247;50.064;19.970;2022-11-20T08:27:01;16.10;25.00
21085;DHT22;34247;50.064;19.970;2022-11-20T08:28:07;16.10;25.00
21085;DHT22;34247;50.064;19.970;2022-11-20T08:29:23;16.10;25.00
21085;DHT22;34247;50.064;19.970;2022-11-20T08:30:27;16.10;25.00
21085;DHT22;34247;50.064;19.970;2022-11-20T08:31:31;16.10;25.10
21085;DHT22;34247;50.064;19.970;2022-11-20T08:32:35;16.10;25.10
21085;DHT22;34247;50.064;19.970;2022-11-20T08:33:40;16.10;25.10
21085;DHT22;34247;50.064;19.970;2022-11-20T08:34:44;16.20;25.60
21085;DHT22;34247;50.064;19.970;2022-11-20T08:35:49;16.20;25.20
21085;DHT22;34247;50.064;19.970;2022-11-20T08:36:53;16.20;25.10
21085;DHT22;34247;50.064;19.970;2022-11-20T08:37:56;16.20;25.00
21085;DHT22;34247;50.064;19.970;2022-11-20T08:39:00;16.20;25.00
21085;DHT22;34247;50.064;19.970;2022-11-20T08:40:05;16.20;24.90
21085;DHT22;34247;50.064;19.970;2022-11-20T08:41:09;16.20;24.90
21085;DHT22;34247;50.064;19.970;2022-11-20T08:42:31;16.20;25.00
21085;DHT22;34247;50.064;19.970;2022-11-20T08:43:34;16.20;25.00
21085;DHT22;34247;50.064;19.970;2022-11-20T08:44:38;16.30;25.00
21085;DHT22;34247;50.064;19.970;2022-11-20T08:45:42;16.30;24.90
21085;DHT22;34247;50.064;19.970;2022-11-20T08:46:45;16.30;24.90
21085;DHT22;34247;50.064;19.970;2022-11-20T08:47:50;16.30;24.90
21085;DHT22;34247;50.064;19.970;2022-11-20T08:48:53;16.30;24.90
21085;DHT22;34247;50.064;19.970;2022-11-20T08:49:57;16.30;24.90
21085;DHT22;34247;50.064;19.970;2022-11-20T08:51:01;16.30;24.90
21085;DHT22;34247;50.064;19.970;2022-11-20T08:52:05;16.30;24.90
21085;DHT22;34247;50.064;19.970;2022-11-20T08:53:09;16.30;24.90
21085;DHT22;34247;50.064;19.970;2022-11-20T08:54:12;16.30;24.90
21085;DHT22;34247;50.064;19.970;2022-11-20T08:55:16;16.30;24.90
21085;DHT22;34247;50.064;19.970;2022-11-20T08:56:20;16.30;24.90
21085;DHT22;34247;50.064;19.970;2022-11-20T08:57:24;16.30;24.90
21085;DHT22;34247;50.064;19.970;2022-11-20T08:58:27;16.40;24.90
21085;DHT22;34247;50.064;19.970;2022-11-20T08:59:31;16.40;24.90
21085;DHT22;34247;50.064;19.970;2022-11-20T09:00:55;16.40;24.90
21085;DHT22;34247;50.064;19.970;2022-11-20T09:01:59;16.40;24.80
21085;DHT22;34247;50.064;19.970;2022-11-20T09:03:02;16.40;24.80
21085;DHT22;34247;50.064;19.970;2022-11-20T09:04:06;16.40;24.80
21085;DHT22;34247;50.064;19.970;2022-11-20T09:05:10;16.40;24.70
21085;DHT22;34247;50.064;19.970;2022-11-20T09:06:15;16.50;24.70
21085;DHT22;34247;50.064;19.970;2022-11-20T09:07:19;16.40;24.70
21085;DHT22;34247;50.064;19.970;2022-11-20T09:08:23;16.40;24.70
21085;DHT22;34247;50.064;19.970;2022-11-20T09:09:27;16.40;24.70
21085;DHT22;34247;50.064;19.970;2022-11-20T09:10:31;16.40;25.20
21085;DHT22;34247;50.064;19.970;2022-11-20T09:11:35;16.50;24.80
21085;DHT22;34247;50.064;19.970;2022-11-20T09:12:39;16.50;24.80
21085;DHT22;34247;50.064;19.970;2022-11-20T09:13:43;16.50;24.70
21085;DHT22;34247;50.064;19.970;2022-11-20T09:14:46;16.50;24.70
21085;DHT22;34247;50.064;19.970;2022-11-20T09:16:02;16.50;24.70
21085;DHT22;34247;50.064;19.970;2022-11-20T09:17:11;16.50;24.70
21085;DHT22;34247;50.064;19.970;2022-11-20T09:18:18;16.60;24.80
21085;DHT22;34247;50.064;19.970;2022-11-20T09:19:21;16.60;24.80
21085;DHT22;34247;50.064;19.970;2022-11-20T09:20:42;16.60;24.80
21085;DHT22;34247;50.064;19.970;2022-11-20T09:21:46;16.60;24.80
21085;DHT22;34247;50.064;19.970;2022-11-20T09:22:50;16.70;24.80
21085;DHT22;34247;50.064;19.970;2022-11-20T09:23:54;16.70;24.80
21085;DHT22;34247;50.064;19.970;2022-11-20T09:24:58;16.70;24.80
21085;DHT22;34247;50.064;19.970;2022-11-20T09:26:07;16.70;24.70
21085;DHT22;34247;50.064;19.970;2022-11-20T09:27:14;16.70;24.70
21085;DHT22;34247;50.064;19.970;2022-11-20T09:28:18;16.80;24.70
21085;DHT22;34247;50.064;19.970;2022-11-20T09:29:22;16.80;24.80
21085;DHT22;34247;50.064;19.970;2022-11-20T09:30:26;16.80;24.70
21085;DHT22;34247;50.064;19.970;2022-11-20T09:31:30;16.80;24.70
21085;DHT22;34247;50.064;19.970;2022-11-20T09:32:34;16.90;24.70
21085;DHT22;34247;50.064;19.970;2022-11-20T09:33:40;16.90;24.70
21085;DHT22;34247;50.064;19.970;2022-11-20T09:34:44;16.90;24.70
21085;DHT22;34247;50.064;19.970;2022-11-20T09:35:48;16.90;24.70
21085;DHT22;34247;50.064;19.970;2022-11-20T09:36:51;16.90;24.70
21085;DHT22;34247;50.064;19.970;2022-11-20T09:37:55;16.90;24.70
21085;DHT22;34247;50.064;19.970;2022-11-20T09:38:59;16.90;24.60
21085;DHT22;34247;50.064;19.970;2022-11-20T09:40:03;17.00;24.60
21085;DHT22;34247;50.064;19.970;2022-11-20T09:41:30;17.00;24.60
21085;DHT22;34247;50.064;19.970;2022-11-20T09:46:53;17.00;24.60
21085;DHT22;34247;50.064;19.970;2022-11-20T09:54:18;17.30;24.40
21085;DHT22;34247;50.064;19.970;2022-11-20T09:55:24;17.30;24.40
21085;DHT22;34247;50.064;19.970;2022-11-20T09:56:30;17.30;24.40
21085;DHT22;34247;50.064;19.970;2022-11-20T09:57:41;17.30;24.50
21085;DHT22;34247;50.064;19.970;2022-11-20T09:58:51;17.30;24.50
21085;DHT22;34247;50.064;19.970;2022-11-20T10:00:00;17.30;24.60